createdAt,value
2022-08-18T00:00:26.960Z,34.70
2022-08-18T00:01:27.012Z,30.00
2022-08-18T00:02:30.215Z,35.40
2022-08-18T00:03:53.180Z,40.20
2022-08-18T00:04:35.616Z,37.20
2022-08-18T00:05:26.864Z,33.60
2022-08-18T00:06:28.328Z,33.90
2022-08-18T00:07:26.788Z,37.00
2022-08-18T00:08:26.758Z,29.00
2022-08-18T00:09:31.503Z,37.50
2022-08-18T00:10:26.788Z,35.60
2022-08-18T00:11:26.717Z,38.90
2022-08-18T00:12:26.743Z,36.60
2022-08-18T00:13:26.710Z,41.60
2022-08-18T00:14:26.691Z,40.60
2022-08-18T00:15:26.746Z,36.10
2022-08-18T00:16:27.343Z,32.30
2022-08-18T00:17:26.652Z,36.80
2022-08-18T00:18:26.768Z,33.50
2022-08-18T00:19:46.286Z,37.60
2022-08-18T00:20:26.676Z,31.40
2022-08-18T00:21:26.668Z,35.00
2022-08-18T00:22:26.628Z,31.50
2022-08-18T00:23:26.593Z,36.70
2022-08-18T00:24:26.616Z,30.90
2022-08-18T00:25:26.607Z,35.20
2022-08-18T00:26:26.553Z,37.80
2022-08-18T00:27:28.462Z,37.00
2022-08-18T00:28:26.567Z,37.30
2022-08-18T00:29:26.525Z,35.20
2022-08-18T00:30:26.568Z,37.20
2022-08-18T00:31:26.574Z,30.90
2022-08-18T00:32:26.491Z,37.70
2022-08-18T00:33:26.482Z,36.90
2022-08-18T00:34:26.474Z,39.50
2022-08-18T00:35:26.467Z,44.20
2022-08-18T00:36:26.784Z,37.90
2022-08-18T00:37:26.428Z,43.00
2022-08-18T00:38:26.457Z,55.40
2022-08-18T00:39:26.490Z,45.90
2022-08-18T00:40:26.524Z,47.60
2022-08-18T00:41:26.402Z,42.30
2022-08-18T00:42:29.027Z,40.80
2022-08-18T00:43:26.383Z,41.00
2022-08-18T00:44:26.388Z,44.50
2022-08-18T00:45:26.377Z,44.10
2022-08-18T00:46:26.340Z,45.30
2022-08-18T00:47:41.004Z,51.10
2022-08-18T00:48:26.353Z,43.90
2022-08-18T00:49:26.324Z,42.80
2022-08-18T00:50:26.319Z,50.50
2022-08-18T00:51:26.355Z,47.60
2022-08-18T00:52:26.356Z,49.90
2022-08-18T00:53:26.249Z,42.30
2022-08-18T00:54:26.284Z,43.90
2022-08-18T00:55:26.331Z,42.40
2022-08-18T00:56:26.399Z,39.90
2022-08-18T00:57:26.267Z,45.90
2022-08-18T00:58:26.209Z,43.70
2022-08-18T00:59:26.185Z,42.50
2022-08-18T01:00:26.294Z,38.30
2022-08-18T01:01:26.212Z,39.80
2022-08-18T01:02:26.193Z,41.60
2022-08-18T01:03:26.239Z,37.60
2022-08-18T01:04:26.168Z,38.20
2022-08-18T01:05:26.198Z,42.90
2022-08-18T01:06:26.156Z,38.50
2022-08-18T01:07:26.993Z,36.00
2022-08-18T01:08:29.294Z,39.00
2022-08-18T01:09:26.072Z,40.30
2022-08-18T01:10:26.106Z,43.20
2022-08-18T01:11:26.105Z,44.30
2022-08-18T01:12:44.629Z,42.20
2022-08-18T01:13:26.068Z,48.40
2022-08-18T01:14:26.034Z,46.30
2022-08-18T01:15:28.046Z,42.50
2022-08-18T01:16:26.035Z,48.10
2022-08-18T01:17:25.977Z,51.70
2022-08-18T01:18:26.058Z,47.80
2022-08-18T01:19:26.014Z,53.30
2022-08-18T01:20:25.992Z,48.90
2022-08-18T01:21:25.987Z,48.30
2022-08-18T01:22:25.960Z,45.60
2022-08-18T01:23:25.925Z,51.10
2022-08-18T01:24:26.207Z,46.90
2022-08-18T01:25:26.132Z,44.00
2022-08-18T01:26:25.893Z,49.40
2022-08-18T01:27:26.014Z,47.50
2022-08-18T01:28:25.865Z,46.80
2022-08-18T01:29:25.880Z,40.10
2022-08-18T01:30:26.329Z,45.90
2022-08-18T01:31:25.895Z,48.00
2022-08-18T01:32:25.920Z,44.70
2022-08-18T01:33:30.042Z,45.40
2022-08-18T01:34:25.820Z,47.70
2022-08-18T01:35:25.791Z,46.20
2022-08-18T01:36:25.863Z,46.00
2022-08-18T01:37:25.788Z,47.90
2022-08-18T01:38:25.784Z,43.00
2022-08-18T01:41:22.760Z,45.10
2022-08-18T01:41:33.094Z,47.00
2022-08-18T01:41:38.194Z,49.50
2022-08-18T01:42:38.236Z,47.20
2022-08-18T01:43:38.172Z,44.00
2022-08-18T01:44:38.101Z,38.90
2022-08-18T01:45:38.101Z,46.20
2022-08-18T01:46:38.358Z,50.20
2022-08-18T01:47:48.073Z,50.90
2022-08-18T01:48:38.067Z,44.50
2022-08-18T01:49:39.999Z,49.00
2022-08-18T01:50:38.069Z,33.10
2022-08-18T01:51:39.995Z,36.80
2022-08-18T01:52:40.167Z,32.40
2022-08-18T01:53:38.075Z,28.20
2022-08-18T01:54:38.026Z,26.80
2022-08-18T01:55:37.982Z,25.20
2022-08-18T01:56:38.058Z,19.90
2022-08-18T01:57:37.937Z,20.40
2022-08-18T01:58:38.015Z,17.80
2022-08-18T01:59:38.031Z,20.90
2022-08-18T02:00:37.903Z,16.80
2022-08-18T02:01:37.944Z,17.70
2022-08-18T02:02:38.135Z,17.70
2022-08-18T02:03:37.866Z,15.40
2022-08-18T02:04:37.973Z,17.40
2022-08-18T02:05:37.963Z,17.30
2022-08-18T02:06:37.882Z,20.00
2022-08-18T02:07:39.077Z,18.20
2022-08-18T02:08:37.834Z,18.30
2022-08-18T02:09:37.969Z,16.20
2022-08-18T02:10:37.826Z,16.40
2022-08-18T02:11:38.040Z,15.30
2022-08-18T02:12:38.487Z,12.20
2022-08-18T02:13:37.756Z,12.50
2022-08-18T02:14:37.756Z,11.60
2022-08-18T02:15:37.834Z,14.50
2022-08-18T02:16:37.788Z,15.60
2022-08-18T02:17:37.750Z,13.50
2022-08-18T02:18:48.355Z,11.90
2022-08-18T02:19:37.742Z,16.70
2022-08-18T02:20:37.699Z,15.60
2022-08-18T02:21:37.691Z,14.80
2022-08-18T02:22:37.702Z,16.90
2022-08-18T02:23:37.651Z,13.50
2022-08-18T02:24:37.679Z,12.10
2022-08-18T02:25:37.629Z,14.00
2022-08-18T02:26:37.617Z,13.90
2022-08-18T02:27:37.614Z,17.50
2022-08-18T02:28:37.664Z,16.10
2022-08-18T02:29:37.628Z,18.60
2022-08-18T02:30:37.632Z,14.30
2022-08-18T02:31:37.574Z,17.10
2022-08-18T02:32:37.547Z,19.10
2022-08-18T02:33:37.635Z,18.10
2022-08-18T02:34:37.605Z,16.00
2022-08-18T02:35:37.608Z,16.10
2022-08-18T02:36:37.501Z,18.60
2022-08-18T02:37:37.555Z,18.80
2022-08-18T02:38:37.584Z,16.90
2022-08-18T02:39:37.718Z,17.10
2022-08-18T02:40:37.487Z,18.30
2022-08-18T02:41:37.521Z,15.00
2022-08-18T02:42:37.447Z,13.90
2022-08-18T02:43:37.864Z,17.60
2022-08-18T02:44:37.485Z,20.40
2022-08-18T02:45:37.407Z,18.80
2022-08-18T02:46:37.993Z,16.30
2022-08-18T02:47:37.537Z,15.20
2022-08-18T02:48:37.469Z,16.10
2022-08-18T02:49:37.356Z,17.90
2022-08-18T02:50:37.373Z,22.90
2022-08-18T02:51:37.368Z,20.20
2022-08-18T02:52:37.878Z,23.20
2022-08-18T02:53:37.681Z,23.00
2022-08-18T02:54:37.544Z,24.30
2022-08-18T02:55:37.429Z,23.30
2022-08-18T02:56:41.679Z,25.30
2022-08-18T02:57:37.298Z,26.70
2022-08-18T02:58:37.380Z,29.70
2022-08-18T02:59:37.265Z,29.80
2022-08-18T03:00:37.232Z,36.80
2022-08-18T03:01:37.269Z,31.70
2022-08-18T03:02:37.206Z,34.40
2022-08-18T03:03:37.218Z,37.10
2022-08-18T03:04:37.278Z,39.90
2022-08-18T03:05:37.178Z,39.30
2022-08-18T03:06:37.159Z,44.80
2022-08-18T03:07:37.173Z,41.10
2022-08-18T03:08:37.142Z,38.40
2022-08-18T03:09:37.126Z,44.10
2022-08-18T03:10:37.186Z,37.90
2022-08-18T03:11:37.123Z,40.20
2022-08-18T03:12:37.326Z,38.70
2022-08-18T03:13:37.093Z,40.20
2022-08-18T03:14:37.192Z,42.60
2022-08-18T03:15:37.082Z,42.10
2022-08-18T03:16:37.091Z,47.10
2022-08-18T03:17:37.046Z,39.90
2022-08-18T03:18:37.025Z,42.00
2022-08-18T03:19:37.012Z,37.60
2022-08-18T03:20:37.575Z,42.40
2022-08-18T03:21:37.018Z,45.60
2022-08-18T03:22:37.035Z,41.90
2022-08-18T03:23:36.975Z,47.40
2022-08-18T03:24:36.972Z,36.10
2022-08-18T03:25:37.065Z,46.30
2022-08-18T03:26:37.006Z,41.30
2022-08-18T03:27:37.012Z,41.30
2022-08-18T03:28:36.989Z,43.60
2022-08-18T03:29:36.906Z,46.10
2022-08-18T03:30:36.887Z,41.60
2022-08-18T03:31:36.890Z,45.90
2022-08-18T03:32:36.898Z,41.60
2022-08-18T03:33:36.952Z,41.60
2022-08-18T03:34:37.411Z,37.90
2022-08-18T03:35:36.931Z,47.00
2022-08-18T03:36:36.971Z,41.50
2022-08-18T03:37:36.812Z,43.80
2022-08-18T03:38:36.870Z,43.20
2022-08-18T03:39:37.082Z,41.70
2022-08-18T03:40:37.482Z,44.20
2022-08-18T03:41:57.474Z,44.20
2022-08-18T03:42:36.799Z,38.80
2022-08-18T03:43:50.938Z,34.90
2022-08-18T03:44:36.827Z,34.70
2022-08-18T03:45:36.763Z,37.80
2022-08-18T03:46:36.788Z,41.00
2022-08-18T03:47:36.734Z,43.10
2022-08-18T03:48:36.724Z,39.80
2022-08-18T03:49:37.531Z,39.30
2022-08-18T03:50:36.750Z,37.90
2022-08-18T03:51:36.735Z,36.40
2022-08-18T03:52:36.950Z,38.20
2022-08-18T03:53:36.709Z,38.20
2022-08-18T03:54:36.653Z,41.20
2022-08-18T03:55:36.714Z,43.30
2022-08-18T03:56:37.372Z,39.80
2022-08-18T03:57:39.124Z,44.30
2022-08-18T03:58:36.675Z,45.70
2022-08-18T03:59:36.700Z,44.30
2022-08-18T04:00:36.597Z,37.80
2022-08-18T04:01:36.698Z,35.90
2022-08-18T04:02:36.618Z,38.20
2022-08-18T04:03:36.657Z,38.50
2022-08-18T04:04:36.589Z,35.60
2022-08-18T04:05:36.521Z,37.50
2022-08-18T04:06:36.499Z,39.30
2022-08-18T04:07:36.520Z,34.10
2022-08-18T04:08:36.629Z,38.60
2022-08-18T04:09:36.621Z,33.40
2022-08-18T04:10:36.682Z,33.50
2022-08-18T04:11:37.232Z,44.60
2022-08-18T04:12:36.534Z,35.50
2022-08-18T04:13:36.499Z,38.60
2022-08-18T04:14:36.593Z,39.00
2022-08-18T04:15:36.454Z,40.00
2022-08-18T04:16:36.505Z,36.10
2022-08-18T04:17:36.500Z,35.80
2022-08-18T04:18:36.510Z,31.80
2022-08-18T04:19:36.608Z,33.90
2022-08-18T04:20:36.574Z,33.40
2022-08-18T04:21:36.774Z,40.80
2022-08-18T04:22:36.712Z,38.10
2022-08-18T04:23:43.720Z,40.00
2022-08-18T04:24:36.486Z,43.30
2022-08-18T04:25:36.321Z,36.50
2022-08-18T04:26:36.294Z,38.30
2022-08-18T04:27:36.413Z,37.40
2022-08-18T04:28:36.282Z,35.50
2022-08-18T04:29:36.224Z,37.90
2022-08-18T04:30:36.211Z,36.40
2022-08-18T04:31:36.215Z,33.40
2022-08-18T04:32:36.200Z,36.90
2022-08-18T04:33:36.221Z,40.80
2022-08-18T04:34:36.214Z,37.50
2022-08-18T04:35:36.223Z,33.20
2022-08-18T04:36:37.483Z,35.60
2022-08-18T04:37:37.983Z,37.90
2022-08-18T04:38:36.123Z,36.10
2022-08-18T04:39:36.206Z,34.50
2022-08-18T04:40:36.605Z,33.90
2022-08-18T04:41:36.093Z,30.60
2022-08-18T04:42:36.101Z,31.40
2022-08-18T04:43:36.095Z,29.30
2022-08-18T04:44:36.099Z,31.90
2022-08-18T04:45:36.045Z,36.90
2022-08-18T04:46:36.105Z,29.90
2022-08-18T04:47:36.286Z,34.00
2022-08-18T04:48:36.019Z,31.00
2022-08-18T04:49:36.012Z,31.40
2022-08-18T04:50:35.992Z,33.90
2022-08-18T04:52:36.263Z,31.20
2022-08-18T04:52:45.639Z,37.50
2022-08-18T04:53:35.971Z,31.50
2022-08-18T04:54:35.997Z,30.60
2022-08-18T04:55:35.954Z,31.50
2022-08-18T04:56:35.938Z,33.50
2022-08-18T04:57:35.962Z,30.90
2022-08-18T04:58:35.960Z,30.60
2022-08-18T04:59:35.886Z,28.70
2022-08-18T05:00:35.877Z,31.30
2022-08-18T05:01:35.981Z,29.40
2022-08-18T05:02:35.863Z,31.30
2022-08-18T05:03:35.927Z,32.70
2022-08-18T05:04:35.934Z,27.80
2022-08-18T05:05:35.906Z,33.30
2022-08-18T05:06:35.811Z,30.40
2022-08-18T05:07:35.816Z,31.50
2022-08-18T05:08:35.792Z,32.90
2022-08-18T05:09:41.154Z,31.70
2022-08-18T05:10:35.800Z,27.80
2022-08-18T05:11:35.757Z,34.40
2022-08-18T05:12:35.743Z,30.30
2022-08-18T05:13:35.730Z,29.50
2022-08-18T05:14:35.770Z,27.70
2022-08-18T05:15:59.531Z,30.40
2022-08-18T05:16:35.726Z,28.60
2022-08-18T05:17:35.699Z,33.90
2022-08-18T05:18:35.685Z,30.40
2022-08-18T05:19:35.773Z,30.90
2022-08-18T05:20:35.687Z,28.40
2022-08-18T05:21:35.764Z,31.10
2022-08-18T05:22:35.637Z,29.40
2022-08-18T05:23:36.139Z,32.70
2022-08-18T05:24:37.392Z,29.80
2022-08-18T05:25:35.609Z,31.40
2022-08-18T05:26:35.611Z,30.00
2022-08-18T05:27:35.648Z,31.50
2022-08-18T05:28:42.347Z,28.60
2022-08-18T05:39:05.362Z,24.40
2022-08-18T05:40:11.070Z,30.90
2022-08-18T05:41:06.693Z,21.70
2022-08-18T05:42:06.671Z,24.60
2022-08-18T05:43:06.897Z,24.80
2022-08-18T05:44:06.735Z,25.40
2022-08-18T05:45:06.512Z,28.10
2022-08-18T05:46:06.732Z,27.90
2022-08-18T05:47:06.527Z,28.20
2022-08-18T05:48:06.690Z,22.10
2022-08-18T05:49:06.488Z,26.10
2022-08-18T05:50:06.248Z,25.90
2022-08-18T05:51:06.168Z,22.50
2022-08-18T05:52:06.168Z,24.10
2022-08-18T05:53:13.947Z,23.70
2022-08-18T05:54:06.160Z,28.70
2022-08-18T05:55:06.210Z,28.20
2022-08-18T05:56:06.973Z,24.00
2022-08-18T05:57:06.105Z,24.10
2022-08-18T05:58:06.080Z,28.30
2022-08-18T05:59:06.076Z,21.90
2022-08-18T06:00:06.092Z,26.20
2022-08-18T06:01:06.987Z,21.20
2022-08-18T06:02:06.099Z,22.10
2022-08-18T06:03:06.089Z,24.20
2022-08-18T06:04:06.017Z,23.20
2022-08-18T06:05:06.022Z,22.50
2022-08-18T06:06:06.052Z,21.80
2022-08-18T06:07:05.988Z,20.00
2022-08-18T06:08:06.011Z,25.60
2022-08-18T06:09:05.973Z,22.00
2022-08-18T06:10:05.946Z,22.10
2022-08-18T06:11:06.001Z,22.90
2022-08-18T06:12:05.972Z,22.70
2022-08-18T06:13:05.920Z,24.80
2022-08-18T06:14:05.969Z,24.30
2022-08-18T06:15:06.464Z,21.00
2022-08-18T06:16:05.940Z,25.70
2022-08-18T06:17:06.042Z,21.00
2022-08-18T06:18:06.016Z,22.00
2022-08-18T06:19:05.858Z,28.80
2022-08-18T06:20:05.900Z,22.90
2022-08-18T06:21:05.827Z,29.30
2022-08-18T06:22:05.888Z,25.30
2022-08-18T06:23:06.117Z,24.10
2022-08-18T06:24:05.784Z,26.30
2022-08-18T06:25:05.776Z,21.10
2022-08-18T06:26:05.829Z,25.00
2022-08-18T06:27:05.845Z,24.30
2022-08-18T06:28:05.776Z,29.40
2022-08-18T06:29:05.749Z,27.60
2022-08-18T06:30:05.958Z,26.70
2022-08-18T06:31:05.736Z,26.80
2022-08-18T06:32:05.757Z,24.20
2022-08-18T06:33:05.726Z,26.80
2022-08-18T06:34:05.687Z,28.40
2022-08-18T06:35:05.672Z,25.70
2022-08-18T06:36:05.649Z,24.40
2022-08-18T06:37:06.498Z,26.20
2022-08-18T06:38:05.689Z,26.40
2022-08-18T06:39:05.644Z,21.10
2022-08-18T06:40:05.677Z,25.60
2022-08-18T06:41:05.599Z,22.60
2022-08-18T06:42:06.493Z,23.20
2022-08-18T06:43:05.609Z,25.40
2022-08-18T06:44:05.630Z,26.50
2022-08-18T06:45:05.544Z,20.10
2022-08-18T06:46:05.892Z,24.30
2022-08-18T06:47:05.544Z,22.70
2022-08-18T06:48:05.513Z,22.80
2022-08-18T06:49:05.517Z,25.90
2022-08-18T06:50:05.665Z,23.00
2022-08-18T06:51:05.483Z,20.40
2022-08-18T06:52:05.466Z,25.60
2022-08-18T06:53:05.516Z,23.00
2022-08-18T06:54:05.472Z,22.30
2022-08-18T06:55:05.467Z,20.10
2022-08-18T06:56:05.471Z,23.20
2022-08-18T06:57:05.419Z,18.40
2022-08-18T06:58:05.404Z,24.60
2022-08-18T06:59:06.319Z,27.20
2022-08-18T07:00:05.375Z,24.00
2022-08-18T07:01:05.495Z,22.40
2022-08-18T07:02:05.385Z,21.50
2022-08-18T07:03:05.359Z,21.90
2022-08-18T07:04:05.332Z,19.90
2022-08-18T07:05:05.333Z,18.60
2022-08-18T07:06:05.347Z,23.40
2022-08-18T07:07:05.292Z,18.40
2022-08-18T07:08:05.335Z,19.40
2022-08-18T07:09:05.288Z,19.70
2022-08-18T07:10:05.266Z,20.30
2022-08-18T07:11:05.248Z,21.80
2022-08-18T07:12:05.309Z,17.50
2022-08-18T07:13:05.269Z,20.60
2022-08-18T07:14:15.970Z,20.30
2022-08-18T07:15:05.222Z,18.30
2022-08-18T07:16:05.354Z,20.10
2022-08-18T07:17:05.204Z,20.40
2022-08-18T07:18:05.227Z,18.80
2022-08-18T07:19:05.202Z,23.50
2022-08-18T07:20:05.182Z,18.80
2022-08-18T07:21:05.170Z,16.20
2022-08-18T07:22:05.241Z,16.70
2022-08-18T07:23:08.176Z,17.90
2022-08-18T07:24:23.626Z,18.40
2022-08-18T07:25:05.679Z,19.40
2022-08-18T07:26:05.160Z,18.80
2022-08-18T07:27:05.138Z,18.60
2022-08-18T07:28:05.331Z,20.60
2022-08-18T07:29:05.076Z,20.50
2022-08-18T07:30:05.159Z,17.90
2022-08-18T07:31:16.399Z,21.90
2022-08-18T07:32:05.056Z,18.40
2022-08-18T07:33:05.282Z,16.40
2022-08-18T07:34:04.986Z,20.20
2022-08-18T07:35:04.987Z,18.70
2022-08-18T07:36:05.073Z,22.00
2022-08-18T07:37:05.012Z,19.60
2022-08-18T07:38:24.656Z,16.90
2022-08-18T07:39:05.172Z,20.90
2022-08-18T07:40:04.995Z,19.70
2022-08-18T07:41:04.958Z,22.00
2022-08-18T07:42:04.918Z,22.60
2022-08-18T07:43:04.894Z,22.30
2022-08-18T07:44:07.503Z,20.90
2022-08-18T07:45:04.885Z,21.90
2022-08-18T07:46:04.859Z,25.50
2022-08-18T07:47:04.866Z,20.00
2022-08-18T07:48:15.899Z,20.80
2022-08-18T07:49:05.504Z,24.20
2022-08-18T07:50:31.499Z,26.40
2022-08-18T07:51:08.609Z,19.60
2022-08-18T07:52:04.793Z,24.10
2022-08-18T07:53:04.806Z,23.50
2022-08-18T07:54:04.815Z,20.70
2022-08-18T07:55:04.830Z,23.60
2022-08-18T07:56:04.929Z,21.50
2022-08-18T07:57:04.768Z,22.40
2022-08-18T07:58:04.732Z,19.80
2022-08-18T07:59:04.719Z,20.30
2022-08-18T08:00:04.773Z,21.90
2022-08-18T08:01:04.728Z,20.80
2022-08-18T08:02:07.609Z,22.10
2022-08-18T08:03:04.889Z,22.90
2022-08-18T08:04:04.807Z,19.30
2022-08-18T08:05:04.760Z,20.70
2022-08-18T08:06:04.830Z,24.00
2022-08-18T08:08:04.691Z,20.70
2022-08-18T08:09:04.599Z,22.10
2022-08-18T08:10:04.594Z,24.60
2022-08-18T08:11:04.589Z,25.90
2022-08-18T08:12:04.587Z,22.60
2022-08-18T08:13:09.116Z,20.00
2022-08-18T08:14:04.595Z,23.40
2022-08-18T08:15:04.539Z,21.00
2022-08-18T08:16:04.525Z,31.50
2022-08-18T08:17:04.516Z,27.00
2022-08-18T08:18:04.503Z,21.80
2022-08-18T08:19:11.303Z,22.50
2022-08-18T08:20:04.526Z,20.80
2022-08-18T08:21:04.463Z,25.20
2022-08-18T08:22:04.456Z,24.40
2022-08-18T08:23:04.452Z,27.20
2022-08-18T08:24:04.487Z,20.30
2022-08-18T08:25:04.440Z,26.80
2022-08-18T08:26:04.557Z,29.90
2022-08-18T08:27:04.401Z,20.90
2022-08-18T08:28:04.393Z,20.60
2022-08-18T08:29:04.363Z,25.10
2022-08-18T08:30:04.395Z,20.10
2022-08-18T08:31:25.666Z,22.50
2022-08-18T08:32:04.440Z,21.00
2022-08-18T08:33:04.331Z,25.50
2022-08-18T08:34:06.111Z,23.50
2022-08-18T08:35:04.322Z,24.00
2022-08-18T08:36:04.327Z,26.00
2022-08-18T08:37:04.279Z,23.30
2022-08-18T08:38:22.993Z,23.30
2022-08-18T08:39:04.269Z,26.10
2022-08-18T08:40:04.289Z,19.50
2022-08-18T08:41:04.997Z,23.40
2022-08-18T08:42:32.101Z,21.50
2022-08-18T08:43:04.251Z,21.00
2022-08-18T08:44:04.244Z,20.20
2022-08-18T08:45:04.458Z,21.20
2022-08-18T08:46:04.247Z,16.60
2022-08-18T08:47:04.168Z,19.10
2022-08-18T08:48:08.985Z,23.00
2022-08-18T08:49:04.225Z,24.10
2022-08-18T08:50:04.208Z,21.00
2022-08-18T08:51:04.144Z,22.30
2022-08-18T08:52:04.148Z,18.70
2022-08-18T08:53:04.102Z,16.60
2022-08-18T08:54:04.113Z,17.70
2022-08-18T08:55:04.126Z,14.60
2022-08-18T08:56:04.129Z,17.80
2022-08-18T08:57:04.062Z,16.40
2022-08-18T08:58:04.048Z,14.60
2022-08-18T08:59:04.043Z,15.50
2022-08-18T09:00:04.029Z,15.10
2022-08-18T09:01:04.017Z,17.60
2022-08-18T09:02:04.112Z,18.40
2022-08-18T09:03:04.066Z,16.50
2022-08-18T09:04:03.986Z,21.10
2022-08-18T09:05:08.809Z,18.90
2022-08-18T09:06:03.974Z,19.00
2022-08-18T09:07:03.974Z,17.00
2022-08-18T09:08:04.025Z,14.00
2022-08-18T09:09:03.927Z,16.40
2022-08-18T09:10:04.083Z,14.40
2022-08-18T09:11:03.939Z,18.90
2022-08-18T09:12:03.883Z,17.40
2022-08-18T09:13:03.919Z,14.80
2022-08-18T09:14:03.953Z,16.40
2022-08-18T09:15:03.945Z,16.40
2022-08-18T09:16:11.029Z,18.10
2022-08-18T09:17:03.861Z,17.50
2022-08-18T09:18:03.840Z,18.90
2022-08-18T09:19:03.811Z,18.20
2022-08-18T09:20:03.831Z,18.90
2022-08-18T09:21:03.797Z,18.60
2022-08-18T09:22:03.792Z,21.10
2022-08-18T09:23:03.840Z,18.50
2022-08-18T09:24:03.785Z,18.60
2022-08-18T09:25:03.981Z,20.40
2022-08-18T09:26:03.800Z,17.10
2022-08-18T09:27:03.723Z,19.80
2022-08-18T09:28:11.706Z,20.00
2022-08-18T09:29:03.766Z,21.30
2022-08-18T09:30:03.744Z,19.60
2022-08-18T09:31:03.690Z,15.80
2022-08-18T09:32:03.717Z,18.50
2022-08-18T09:33:03.645Z,16.50
2022-08-18T09:34:10.962Z,16.00
2022-08-18T09:35:05.482Z,17.60
2022-08-18T09:36:03.625Z,17.70
2022-08-18T09:37:03.619Z,20.10
2022-08-18T09:38:03.640Z,17.90
2022-08-18T09:39:03.642Z,19.50
2022-08-18T12:29:17.201Z,8.20
2022-08-18T12:30:18.080Z,8.50
2022-08-18T12:31:18.084Z,6.20
2022-08-18T13:04:55.722Z,6.90
2022-08-18T13:05:00.977Z,10.60
2022-08-18T13:06:00.932Z,5.90
2022-08-18T13:07:04.762Z,6.90
2022-08-18T13:08:03.903Z,7.70
2022-08-18T13:09:00.921Z,7.20
2022-08-18T13:10:00.959Z,6.00
2022-08-18T13:11:13.279Z,7.50
2022-08-18T13:12:00.866Z,6.80
2022-08-18T13:13:00.869Z,5.60
2022-08-18T13:14:00.839Z,8.90
2022-08-18T13:15:00.949Z,8.00
2022-08-18T13:16:01.131Z,5.50
2022-08-18T13:17:00.798Z,6.70
2022-08-18T13:18:00.813Z,6.20
2022-08-18T13:19:00.790Z,5.30
2022-08-18T13:20:01.000Z,4.80
2022-08-18T13:21:00.776Z,5.50
2022-08-18T13:22:00.780Z,6.10
2022-08-18T13:23:01.580Z,5.50
2022-08-18T13:24:00.730Z,8.90
2022-08-18T13:25:00.724Z,8.00
2022-08-18T13:26:01.963Z,6.30
2022-08-18T13:27:00.748Z,7.70
2022-08-18T13:28:01.683Z,5.30
2022-08-18T13:29:00.677Z,8.40
2022-08-18T13:30:00.737Z,4.50
2022-08-18T13:31:00.758Z,6.50
2022-08-18T13:32:00.670Z,5.90
2022-08-18T13:33:02.634Z,11.00
2022-08-18T13:34:04.027Z,8.40
2022-08-18T13:35:02.735Z,8.50
2022-08-18T13:36:00.604Z,8.50
2022-08-18T13:37:00.775Z,7.80
2022-08-18T13:38:01.745Z,11.20
2022-08-18T13:39:00.608Z,7.30
2022-08-18T13:40:01.885Z,8.40
2022-08-18T13:41:00.575Z,10.00
2022-08-18T13:42:00.927Z,10.60
2022-08-18T13:43:00.815Z,9.10
2022-08-18T13:44:00.526Z,10.10
2022-08-18T13:45:25.052Z,8.20
2022-08-18T13:46:00.992Z,9.30
2022-08-18T13:47:00.718Z,8.00
2022-08-18T13:48:00.538Z,9.40
2022-08-18T13:49:00.623Z,9.00
2022-08-18T13:50:00.463Z,6.60
2022-08-18T13:51:01.019Z,6.30
2022-08-18T13:52:01.112Z,9.20
2022-08-18T13:53:00.510Z,6.50
2022-08-18T13:54:18.695Z,6.70
2022-08-18T13:55:00.525Z,8.50
2022-08-18T13:56:00.390Z,10.90
2022-08-18T13:57:00.413Z,10.70
2022-08-18T13:58:00.592Z,11.40
2022-08-18T13:59:00.354Z,10.80
2022-08-18T14:00:00.364Z,10.70
2022-08-18T14:01:22.399Z,7.80
2022-08-18T14:02:00.392Z,9.70
2022-08-18T14:03:00.324Z,12.90
2022-08-18T14:04:00.415Z,11.10
2022-08-18T14:05:00.406Z,10.00
2022-08-18T14:06:01.521Z,8.40
2022-08-18T14:07:03.074Z,10.00
2022-08-18T14:08:00.331Z,9.50
2022-08-18T14:09:00.321Z,7.70
2022-08-18T14:10:04.397Z,11.70
2022-08-18T14:11:00.221Z,8.10
2022-08-18T14:12:00.326Z,8.90
2022-08-18T14:13:00.341Z,7.50
2022-08-18T14:14:00.272Z,7.80
2022-08-18T14:15:00.201Z,7.80
2022-08-18T14:16:00.206Z,7.30
2022-08-18T14:17:00.182Z,10.40
2022-08-18T14:18:00.473Z,9.40
2022-08-18T14:19:00.177Z,8.40
2022-08-18T14:20:00.179Z,5.10
2022-08-18T14:21:00.113Z,6.20
2022-08-18T14:22:00.193Z,5.80
2022-08-18T14:23:00.128Z,5.80
2022-08-18T14:24:00.236Z,7.30
2022-08-18T14:25:00.530Z,8.40
2022-08-18T14:26:00.466Z,7.30
2022-08-18T14:27:00.104Z,5.60
2022-08-18T14:28:00.094Z,7.60
2022-08-18T14:29:00.096Z,8.50
2022-08-18T14:30:00.164Z,7.80
2022-08-18T14:31:00.003Z,8.70
2022-08-18T14:31:59.998Z,5.60
2022-08-18T14:33:00.552Z,8.10
2022-08-18T14:34:03.982Z,6.50
2022-08-18T14:35:33.017Z,7.00
2022-08-18T14:36:06.335Z,6.60
2022-08-18T14:37:00.373Z,4.50
2022-08-18T14:38:00.132Z,6.50
2022-08-18T14:39:00.316Z,5.40
2022-08-18T14:40:00.603Z,6.90
2022-08-18T14:41:00.105Z,4.60
2022-08-18T14:42:03.085Z,7.40
2022-08-18T14:42:59.952Z,8.80
2022-08-18T14:44:13.020Z,6.80
2022-08-18T14:45:03.517Z,4.60
2022-08-18T14:46:00.081Z,6.60
2022-08-18T14:47:00.848Z,5.50
2022-08-18T14:47:59.944Z,7.00
2022-08-18T14:48:59.973Z,7.50
2022-08-18T14:49:59.907Z,7.50
2022-08-18T14:50:59.752Z,6.80
2022-08-18T14:51:59.785Z,8.10
2022-08-18T14:52:59.755Z,4.90
2022-08-18T14:53:59.725Z,6.00
2022-08-18T14:54:59.749Z,8.60
2022-08-18T14:55:59.725Z,7.60
2022-08-18T14:56:59.685Z,5.90
2022-08-18T14:57:59.932Z,8.60
2022-08-18T14:58:59.686Z,8.00
2022-08-18T14:59:59.714Z,6.50
2022-08-18T15:00:59.693Z,7.60
2022-08-18T15:01:59.850Z,9.00
2022-08-18T15:03:00.085Z,5.30
2022-08-18T15:03:59.985Z,6.50
2022-08-18T15:04:59.955Z,4.30
2022-08-18T15:05:59.822Z,6.40
2022-08-18T15:06:59.566Z,5.60
2022-08-18T15:07:59.549Z,5.60
2022-08-18T15:08:59.575Z,6.10
2022-08-18T15:10:15.667Z,4.70
2022-08-18T15:10:59.586Z,7.00
2022-08-18T15:11:59.592Z,7.00
2022-08-18T15:12:59.514Z,10.10
2022-08-18T15:13:59.520Z,8.40
2022-08-18T15:14:59.550Z,9.00
2022-08-18T15:16:01.870Z,9.40
2022-08-18T15:16:59.479Z,6.00
2022-08-18T15:17:59.583Z,7.80
2022-08-18T15:18:59.453Z,6.20
2022-08-18T15:20:01.669Z,9.90
2022-08-18T15:20:59.447Z,9.10
2022-08-18T15:21:59.505Z,9.20
2022-08-18T15:22:59.398Z,8.20
2022-08-18T15:23:59.460Z,8.80
2022-08-18T15:24:59.517Z,6.80
2022-08-18T15:25:59.436Z,9.70
2022-08-18T15:27:06.153Z,6.60
2022-08-18T15:27:59.389Z,8.30
2022-08-18T15:29:00.759Z,7.50
2022-08-18T15:29:59.361Z,10.40
2022-08-18T15:32:02.258Z,6.90
2022-08-18T15:32:59.315Z,7.30
2022-08-18T15:33:59.448Z,8.00
2022-08-18T15:34:59.249Z,8.00
2022-08-18T15:35:59.293Z,9.10
2022-08-18T15:37:09.500Z,9.30
2022-08-18T15:37:59.260Z,11.30
2022-08-18T15:38:59.272Z,6.20
2022-08-18T15:39:59.457Z,8.90
2022-08-18T15:40:59.199Z,11.30
2022-08-18T15:41:59.868Z,8.20
2022-08-18T15:42:59.251Z,10.40
2022-08-18T15:43:59.524Z,10.60
2022-08-18T15:44:59.313Z,9.50
2022-08-18T15:45:59.192Z,6.60
2022-08-18T15:46:59.183Z,6.50
2022-08-18T15:47:59.226Z,10.40
2022-08-18T15:48:59.109Z,8.60
2022-08-18T15:49:59.133Z,10.80
2022-08-18T15:51:06.206Z,11.20
2022-08-18T15:51:59.192Z,7.70
2022-08-18T15:52:59.147Z,7.40
2022-08-18T15:53:59.112Z,8.90
2022-08-18T15:55:02.293Z,8.80
2022-08-18T15:56:04.091Z,8.70
2022-08-18T15:56:59.046Z,8.40
2022-08-18T15:57:59.213Z,7.90
2022-08-18T15:59:00.588Z,9.90
2022-08-18T15:59:59.042Z,7.00
2022-08-18T16:00:59.147Z,9.30
2022-08-18T16:01:59.048Z,9.50
2022-08-18T16:02:58.965Z,9.00
2022-08-18T16:03:59.122Z,8.20
2022-08-18T16:05:00.202Z,9.20
2022-08-18T16:05:58.925Z,8.30
2022-08-18T16:06:59.198Z,7.90
2022-08-18T16:07:58.909Z,6.70
2022-08-18T16:08:59.036Z,8.80
2022-08-18T16:09:58.980Z,9.90
2022-08-18T16:10:59.030Z,9.20
2022-08-18T16:12:00.476Z,9.80
2022-08-18T16:12:58.940Z,11.00
2022-08-18T16:13:59.051Z,9.00
2022-08-18T16:14:58.929Z,7.60
2022-08-18T16:15:58.904Z,7.50
2022-08-18T16:17:00.232Z,7.40
2022-08-18T16:17:58.837Z,8.70
2022-08-18T16:18:58.879Z,7.30
2022-08-18T16:19:58.784Z,9.00
2022-08-18T16:20:58.816Z,9.00
2022-08-18T16:21:58.814Z,7.10
2022-08-18T16:22:58.802Z,8.60
2022-08-18T16:23:58.725Z,6.80
2022-08-18T16:24:59.728Z,6.40
2022-08-18T16:25:58.813Z,10.40
2022-08-18T16:26:58.840Z,9.60
2022-08-18T16:27:58.828Z,8.50
2022-08-18T16:29:01.635Z,7.60
2022-08-18T16:29:58.731Z,10.90
2022-08-18T16:30:58.770Z,7.20